createdAt,value
2023-02-28T00:02:31.231Z,99150.41
2023-02-28T00:05:39.823Z,99144.34
2023-02-28T00:08:46.612Z,99142.56
2023-02-28T00:11:53.027Z,99147.94
2023-02-28T00:14:59.839Z,99143.38
2023-02-28T00:18:06.465Z,99157.09
2023-02-28T00:21:15.883Z,99155.53
2023-02-28T00:24:21.749Z,99161.44
2023-02-28T00:27:28.528Z,99154.50
2023-02-28T00:30:34.491Z,99153.44
2023-02-28T00:33:45.047Z,99159.50
2023-02-28T00:36:53.543Z,99159.84
2023-02-28T00:40:00.416Z,99167.75
2023-02-28T00:43:06.802Z,99169.13
2023-02-28T00:46:13.757Z,99167.19
2023-02-28T00:49:19.656Z,99167.28
2023-02-28T00:52:29.115Z,99159.75
2023-02-28T00:55:34.978Z,99166.75
2023-02-28T00:58:41.777Z,99164.91
2023-02-28T01:01:49.991Z,99168.09
2023-02-28T01:04:58.024Z,99174.00
2023-02-28T01:08:06.643Z,99171.66
2023-02-28T01:11:16.018Z,99169.63
2023-02-28T01:14:23.182Z,99161.03
2023-02-28T01:17:30.086Z,99158.31
2023-02-28T01:20:36.930Z,99155.38
2023-02-28T01:23:47.058Z,99151.06
2023-02-28T01:26:52.940Z,99155.97
2023-02-28T01:30:01.786Z,99150.81
2023-02-28T01:33:07.614Z,99151.41
2023-02-28T01:36:19.208Z,99139.38
2023-02-28T01:39:27.772Z,99143.47
2023-02-28T01:42:34.515Z,99138.53
2023-02-28T01:45:41.152Z,99138.09
2023-02-28T01:48:55.344Z,99141.03
2023-02-28T01:52:01.670Z,99142.63
2023-02-28T01:55:16.113Z,99139.75
2023-02-28T01:58:22.856Z,99142.94
2023-02-28T02:01:34.753Z,99142.31
2023-02-28T02:04:51.241Z,99140.81
2023-02-28T02:08:06.261Z,99136.59
2023-02-28T02:11:25.772Z,99143.19
2023-02-28T02:14:55.269Z,99134.50
2023-02-28T02:18:13.106Z,99135.00
2023-02-28T02:22:00.093Z,99135.00
2023-02-28T02:25:36.402Z,99138.66
2023-02-28T02:29:33.254Z,99138.22
2023-02-28T02:33:21.895Z,99132.25
2023-02-28T02:36:39.596Z,99123.53
2023-02-28T02:40:08.641Z,99130.53
2023-02-28T02:43:28.588Z,99134.94
2023-02-28T02:46:43.667Z,99134.47
2023-02-28T02:49:59.729Z,99139.06
2023-02-28T02:53:13.110Z,99137.34
2023-02-28T02:56:30.190Z,99137.47
2023-02-28T02:59:42.071Z,99142.38
2023-02-28T03:02:53.436Z,99134.84
2023-02-28T03:06:04.996Z,99141.28
2023-02-28T03:09:21.171Z,99138.53
2023-02-28T03:12:43.921Z,99150.09
2023-02-28T03:16:17.055Z,99151.41
2023-02-28T03:20:01.640Z,99143.56
2023-02-28T03:23:23.491Z,99145.84
2023-02-28T03:26:33.787Z,99151.28
2023-02-28T03:29:50.334Z,99147.91
2023-02-28T03:33:07.825Z,99145.84
2023-02-28T03:36:24.027Z,99149.06
2023-02-28T03:39:43.559Z,99139.53
2023-02-28T03:43:04.923Z,99148.38
2023-02-28T03:46:22.328Z,99143.41
2023-02-28T03:49:39.357Z,99152.66
2023-02-28T03:52:54.450Z,99154.41
2023-02-28T03:56:12.773Z,99162.28
2023-02-28T03:59:37.211Z,99170.59
2023-02-28T04:02:44.275Z,99169.91
2023-02-28T04:05:57.287Z,99164.75
2023-02-28T04:09:04.933Z,99152.56
2023-02-28T04:12:12.109Z,99169.81
2023-02-28T04:15:24.001Z,99171.78
2023-02-28T04:18:30.010Z,99176.59
2023-02-28T04:21:40.197Z,99178.59
2023-02-28T04:24:48.042Z,99178.41
2023-02-28T04:27:58.698Z,99181.81
2023-02-28T04:31:14.426Z,99186.88
2023-02-28T04:34:22.413Z,99194.84
2023-02-28T04:37:30.493Z,99187.69
2023-02-28T04:40:37.156Z,99186.97
2023-02-28T04:43:43.117Z,99188.22
2023-02-28T04:46:53.460Z,99201.31
2023-02-28T04:49:59.462Z,99193.75
2023-02-28T04:53:06.113Z,99189.41
2023-02-28T04:56:16.184Z,99179.97
2023-02-28T04:59:22.886Z,99181.91
2023-02-28T05:02:31.455Z,99188.75
2023-02-28T05:05:38.241Z,99186.06
2023-02-28T05:08:44.922Z,99189.47
2023-02-28T05:11:51.550Z,99183.66
2023-02-28T05:14:57.479Z,99182.16
2023-02-28T05:18:12.404Z,99188.84
2023-02-28T05:21:35.285Z,99184.53
2023-02-28T05:24:43.491Z,99185.50
2023-02-28T05:27:55.248Z,99199.53
2023-02-28T05:31:08.718Z,99204.88
2023-02-28T05:34:18.996Z,99210.47
2023-02-28T05:37:25.705Z,99203.53
2023-02-28T05:40:31.665Z,99214.59
2023-02-28T05:43:38.985Z,99206.69
2023-02-28T05:46:44.854Z,99203.56
2023-02-28T05:49:54.687Z,99214.69
2023-02-28T05:53:00.626Z,99211.13
2023-02-28T05:56:09.257Z,99221.75
2023-02-28T05:59:15.484Z,99226.50
2023-02-28T06:02:22.624Z,99227.16
2023-02-28T06:05:31.859Z,99228.84
2023-02-28T06:08:38.546Z,99233.22
2023-02-28T06:11:44.608Z,99232.28
2023-02-28T06:14:51.304Z,99243.31
2023-02-28T06:17:57.617Z,99235.09
2023-02-28T06:21:07.354Z,99241.59
2023-02-28T06:24:13.543Z,99243.75
2023-02-28T06:27:20.698Z,99245.75
2023-02-28T06:30:29.375Z,99252.53
2023-02-28T06:33:36.101Z,99251.06
2023-02-28T06:36:46.277Z,99255.09
2023-02-28T06:39:57.041Z,99254.47
2023-02-28T06:43:15.672Z,99259.69
2023-02-28T06:46:28.392Z,99259.63
2023-02-28T06:49:35.017Z,99259.97
2023-02-28T06:52:44.476Z,99262.53
2023-02-28T06:55:55.055Z,99260.34
2023-02-28T06:59:11.357Z,99259.44
2023-02-28T07:02:17.171Z,99274.94
2023-02-28T07:05:24.014Z,99274.41
2023-02-28T07:08:32.920Z,99279.34
2023-02-28T07:11:39.678Z,99274.72
2023-02-28T07:14:45.683Z,99278.81
2023-02-28T07:17:52.414Z,99280.09
2023-02-28T07:20:58.381Z,99279.69
2023-02-28T07:24:08.543Z,99287.38
2023-02-28T07:27:26.839Z,99280.59
2023-02-28T07:30:33.565Z,99285.09
2023-02-28T07:33:41.847Z,99281.72
2023-02-28T07:36:48.582Z,99289.81
2023-02-28T07:39:58.424Z,99290.44
2023-02-28T07:43:07.922Z,99282.22
2023-02-28T07:46:17.833Z,99274.50
2023-02-28T07:49:25.202Z,99282.56
2023-02-28T07:52:31.195Z,99279.31
2023-02-28T07:55:40.503Z,99294.41
2023-02-28T07:58:46.364Z,99294.50
2023-02-28T08:01:53.493Z,99284.66
2023-02-28T08:04:59.569Z,99289.53
2023-02-28T08:08:09.458Z,99288.28
2023-02-28T08:11:18.905Z,99275.72
2023-02-28T08:14:26.960Z,99286.91
2023-02-28T08:17:35.333Z,99287.50
2023-02-28T08:20:42.893Z,99289.44
2023-02-28T08:23:50.797Z,99297.44
2023-02-28T08:27:00.593Z,99285.66
2023-02-28T08:30:09.324Z,99292.31
2023-02-28T08:33:17.126Z,99289.69
2023-02-28T08:36:23.972Z,99283.16
2023-02-28T08:39:30.778Z,99291.00
2023-02-28T08:42:40.073Z,99294.91
2023-02-28T08:45:46.991Z,99287.25
2023-02-28T08:49:00.474Z,99295.34
2023-02-28T08:52:14.724Z,99279.88
2023-02-28T08:55:20.757Z,99296.75
2023-02-28T08:58:30.683Z,99276.78
2023-02-28T09:01:37.845Z,99290.31
2023-02-28T09:04:46.576Z,99302.03
2023-02-28T09:07:53.812Z,99298.38
2023-02-28T09:11:07.714Z,99301.88
2023-02-28T09:14:18.650Z,99299.97
2023-02-28T09:17:25.608Z,99300.16
2023-02-28T09:20:36.467Z,99301.69
2023-02-28T09:23:43.443Z,99299.22
2023-02-28T09:26:56.801Z,99293.91
2023-02-28T09:30:16.482Z,99291.38
2023-02-28T09:33:24.787Z,99288.91
2023-02-28T09:36:44.791Z,99289.59
2023-02-28T09:39:51.371Z,99289.69
2023-02-28T09:43:03.711Z,99290.94
2023-02-28T09:46:35.684Z,99298.88
2023-02-28T09:49:50.217Z,99299.00
2023-02-28T09:52:59.742Z,99296.09
2023-02-28T09:56:13.272Z,99304.16
2023-02-28T09:59:38.165Z,99296.34
2023-02-28T10:03:24.858Z,99300.16
2023-02-28T10:06:39.383Z,99289.03
2023-02-28T10:09:46.479Z,99292.81
2023-02-28T10:13:00.006Z,99300.03
2023-02-28T10:16:15.425Z,99301.91
2023-02-28T10:19:34.732Z,99289.03
2023-02-28T10:22:57.266Z,99289.13
2023-02-28T10:26:17.207Z,99298.34
2023-02-28T10:29:23.988Z,99290.19
2023-02-28T10:32:35.563Z,99281.16
2023-02-28T10:35:44.920Z,99274.13
2023-02-28T10:38:52.871Z,99276.78
2023-02-28T10:41:59.619Z,99277.06
2023-02-28T10:45:18.510Z,99273.91
2023-02-28T10:48:38.209Z,99269.72
2023-02-28T10:51:46.746Z,99262.66
2023-02-28T10:54:53.985Z,99257.72
2023-02-28T10:57:59.961Z,99260.16
2023-02-28T11:01:07.029Z,99258.63
2023-02-28T11:04:37.073Z,99253.78
2023-02-28T11:07:55.733Z,99254.13
2023-02-28T11:11:09.108Z,99252.34
2023-02-28T11:14:26.136Z,99240.19
2023-02-28T11:17:35.662Z,99232.38
2023-02-28T11:20:44.549Z,99224.34
2023-02-28T11:24:02.817Z,99240.69
2023-02-28T11:27:11.804Z,99220.97
2023-02-28T11:30:40.327Z,99230.03
2023-02-28T11:33:52.662Z,99231.91
2023-02-28T11:37:04.895Z,99224.78
2023-02-28T11:40:19.766Z,99210.00
2023-02-28T11:43:55.856Z,99207.81
2023-02-28T11:47:14.137Z,99206.66
2023-02-28T11:50:42.246Z,99200.91
2023-02-28T11:54:18.983Z,99194.94
2023-02-28T11:57:52.751Z,99197.72
2023-02-28T12:01:19.004Z,99196.25
2023-02-28T12:04:46.085Z,99199.25
2023-02-28T12:08:19.711Z,99198.22
2023-02-28T12:11:53.661Z,99197.25
2023-02-28T12:15:32.372Z,99182.47
2023-02-28T12:19:10.411Z,99185.72
2023-02-28T12:22:33.863Z,99191.97
2023-02-28T12:25:59.904Z,99192.19
2023-02-28T12:29:21.585Z,99190.84
2023-02-28T12:32:45.769Z,99192.44
2023-02-28T12:35:59.864Z,99182.66
2023-02-28T12:39:14.150Z,99179.38
2023-02-28T12:42:32.456Z,99179.88
2023-02-28T12:45:50.270Z,99174.22
2023-02-28T12:49:14.468Z,99179.88
2023-02-28T12:52:32.669Z,99176.41
2023-02-28T12:55:54.404Z,99177.66
2023-02-28T12:59:08.231Z,99174.94
2023-02-28T13:02:59.462Z,99175.59
2023-02-28T13:06:53.523Z,99171.66
2023-02-28T13:10:08.804Z,99172.47
2023-02-28T13:13:30.804Z,99173.47
2023-02-28T13:17:01.293Z,99172.75
2023-02-28T13:20:08.309Z,99164.91
2023-02-28T13:24:03.260Z,99162.72
2023-02-28T13:27:43.909Z,99162.50
2023-02-28T13:31:12.559Z,99159.22
2023-02-28T13:34:20.855Z,99156.63
2023-02-28T13:37:48.907Z,99157.28
2023-02-28T13:40:55.005Z,99154.13
2023-02-28T13:44:11.780Z,99144.41
2023-02-28T13:47:33.744Z,99159.88
2023-02-28T13:50:42.964Z,99154.06
2023-02-28T13:54:13.771Z,99151.38
2023-02-28T13:57:46.101Z,99142.91
2023-02-28T14:01:44.398Z,99143.78
2023-02-28T14:05:06.191Z,99135.47
2023-02-28T14:08:22.800Z,99141.13
2023-02-28T14:11:36.061Z,99127.53
2023-02-28T14:15:00.915Z,99126.28
2023-02-28T14:18:27.269Z,99128.78
2023-02-28T14:21:38.418Z,99119.00
2023-02-28T14:25:14.818Z,99116.13
2023-02-28T14:28:45.860Z,99122.31
2023-02-28T14:32:12.845Z,99121.25
2023-02-28T14:36:06.107Z,99120.44
2023-02-28T14:39:26.737Z,99100.97
2023-02-28T14:42:39.260Z,99111.50
2023-02-28T14:45:46.135Z,99117.81
2023-02-28T14:48:54.424Z,99121.94
2023-02-28T14:52:19.147Z,99115.19
2023-02-28T14:55:32.134Z,99115.38
2023-02-28T14:58:39.012Z,99119.06
2023-02-28T15:01:45.008Z,99121.19
2023-02-28T15:05:00.981Z,99119.16
2023-02-28T15:08:18.941Z,99119.59
2023-02-28T15:11:26.134Z,99119.06
2023-02-28T15:14:32.342Z,99117.94
2023-02-28T15:17:40.463Z,99109.81
2023-02-28T15:20:49.506Z,99116.03
2023-02-28T15:24:04.834Z,99117.69
2023-02-28T15:27:19.022Z,99113.06
2023-02-28T15:30:33.854Z,99112.22
2023-02-28T15:33:40.560Z,99110.31
2023-02-28T15:36:47.299Z,99110.97
2023-02-28T15:39:58.601Z,99107.59
2023-02-28T15:43:11.505Z,99114.94
2023-02-28T15:46:19.204Z,99114.19
2023-02-28T15:49:27.786Z,99112.19
2023-02-28T15:52:44.926Z,99118.19
2023-02-28T15:56:04.985Z,99117.44
2023-02-28T15:59:20.455Z,99116.50
2023-02-28T16:02:36.650Z,99112.63
2023-02-28T16:05:42.724Z,99119.38
2023-02-28T16:08:52.374Z,99122.16
2023-02-28T16:12:06.618Z,99123.38
2023-02-28T16:15:27.252Z,99121.78
2023-02-28T16:18:35.728Z,99122.53
2023-02-28T16:21:44.672Z,99117.13
2023-02-28T16:24:50.731Z,99129.19
2023-02-28T16:28:10.853Z,99127.97
2023-02-28T16:31:20.271Z,99122.94
2023-02-28T16:34:31.350Z,99129.50
2023-02-28T16:37:39.616Z,99137.00
2023-02-28T16:40:46.992Z,99131.41
2023-02-28T16:44:01.378Z,99138.44
2023-02-28T16:47:15.727Z,99133.19
2023-02-28T16:50:29.652Z,99144.34
2023-02-28T16:53:36.696Z,99145.28
2023-02-28T16:56:51.193Z,99142.97
2023-02-28T17:00:01.889Z,99149.16
2023-02-28T17:03:11.693Z,99155.13
2023-02-28T17:06:26.032Z,99148.94
2023-02-28T17:09:42.389Z,99155.28
2023-02-28T17:12:49.341Z,99154.06
2023-02-28T17:15:58.575Z,99156.63
2023-02-28T17:19:10.176Z,99170.56
2023-02-28T17:22:16.119Z,99173.63
2023-02-28T17:25:24.490Z,99177.75
2023-02-28T17:28:34.613Z,99177.19
2023-02-28T17:31:47.790Z,99174.00
2023-02-28T17:34:54.575Z,99173.31
2023-02-28T17:38:01.468Z,99167.66
2023-02-28T17:41:15.641Z,99164.03
2023-02-28T17:44:22.700Z,99172.84
2023-02-28T17:47:31.386Z,99169.53
2023-02-28T17:50:38.111Z,99171.75
2023-02-28T17:53:44.612Z,99170.25
2023-02-28T17:56:51.669Z,99170.25
2023-02-28T18:00:02.752Z,99162.91
2023-02-28T18:03:35.572Z,99180.41
2023-02-28T18:06:51.238Z,99174.75
2023-02-28T18:09:58.057Z,99174.34
2023-02-28T18:13:04.906Z,99164.06
2023-02-28T18:16:12.873Z,99172.81
2023-02-28T18:19:21.959Z,99173.94
2023-02-28T18:22:28.878Z,99169.06
2023-02-28T18:25:34.774Z,99167.59
2023-02-28T18:28:42.734Z,99171.22
2023-02-28T18:31:49.215Z,99169.78
2023-02-28T18:34:58.799Z,99166.59
2023-02-28T18:38:09.075Z,99161.03
2023-02-28T18:41:16.413Z,99167.88
2023-02-28T18:44:22.561Z,99172.34
2023-02-28T18:47:29.473Z,99170.22
2023-02-28T18:50:42.005Z,99173.16
2023-02-28T18:53:50.207Z,99172.69
2023-02-28T18:56:56.472Z,99167.50
2023-02-28T19:00:03.391Z,99169.28
2023-02-28T19:03:09.334Z,99163.97
2023-02-28T19:06:19.279Z,99156.13
2023-02-28T19:09:25.222Z,99163.97
2023-02-28T19:12:31.936Z,99164.13
2023-02-28T19:15:37.870Z,99153.59
2023-02-28T19:18:45.380Z,99156.28
2023-02-28T19:21:55.503Z,99161.34
2023-02-28T19:25:03.070Z,99154.00
2023-02-28T19:28:09.134Z,99150.56
2023-02-28T19:31:19.885Z,99159.16
2023-02-28T19:34:26.979Z,99160.84
2023-02-28T19:37:40.654Z,99164.38
2023-02-28T19:40:46.890Z,99162.34
2023-02-28T19:43:55.720Z,99158.00
2023-02-28T19:47:01.779Z,99160.00
2023-02-28T19:50:10.187Z,99163.53
2023-02-28T19:53:18.771Z,99164.47
2023-02-28T19:56:26.307Z,99155.78
2023-02-28T19:59:39.221Z,99152.88
2023-02-28T20:02:46.927Z,99156.53
2023-02-28T20:06:05.191Z,99162.69
2023-02-28T20:09:15.644Z,99155.06
2023-02-28T20:12:24.682Z,99162.19
2023-02-28T20:15:32.566Z,99162.47
2023-02-28T20:18:39.116Z,99158.25
2023-02-28T20:21:45.999Z,99155.66
2023-02-28T20:24:54.603Z,99158.41
2023-02-28T20:28:01.506Z,99160.38
2023-02-28T20:31:15.444Z,99168.50
2023-02-28T20:34:27.340Z,99172.16
2023-02-28T20:37:33.386Z,99164.06
2023-02-28T20:40:42.979Z,99165.66
2023-02-28T20:43:49.540Z,99164.97
2023-02-28T20:46:56.430Z,99162.28
2023-02-28T20:50:02.355Z,99159.53
2023-02-28T20:53:09.115Z,99167.50
2023-02-28T20:56:21.407Z,99160.16
2023-02-28T20:59:28.232Z,99156.88
2023-02-28T21:02:34.439Z,99152.66
2023-02-28T21:05:41.171Z,99155.41
2023-02-28T21:08:48.212Z,99160.03
2023-02-28T21:11:59.249Z,99156.50
2023-02-28T21:15:05.375Z,99153.59
2023-02-28T21:18:12.235Z,99143.44
2023-02-28T21:21:22.258Z,99140.16
2023-02-28T21:24:29.033Z,99149.91
2023-02-28T21:27:38.029Z,99149.97
2023-02-28T21:30:44.831Z,99156.88
2023-02-28T21:33:51.449Z,99152.81
2023-02-28T21:36:58.269Z,99151.81
2023-02-28T21:40:04.301Z,99154.38
2023-02-28T21:43:13.777Z,99152.06
2023-02-28T21:46:23.651Z,99168.13
2023-02-28T21:49:31.049Z,99164.06
2023-02-28T21:52:37.094Z,99155.59
2023-02-28T21:55:44.113Z,99157.59
2023-02-28T21:59:00.820Z,99163.03
2023-02-28T22:02:10.903Z,99158.81
2023-02-28T22:05:16.874Z,99157.19
2023-02-28T22:08:23.967Z,99157.13
2023-02-28T22:11:30.199Z,99154.59
2023-02-28T22:14:41.924Z,99148.75
2023-02-28T22:17:48.253Z,99155.88
2023-02-28T22:20:58.205Z,99166.59
2023-02-28T22:24:04.223Z,99161.38
2023-02-28T22:27:11.096Z,99168.84
2023-02-28T22:30:21.111Z,99165.53
2023-02-28T22:33:29.791Z,99165.78
2023-02-28T22:36:36.502Z,99165.50
2023-02-28T22:39:44.056Z,99162.13
2023-02-28T22:42:50.929Z,99170.88
2023-02-28T22:46:03.862Z,99178.00
2023-02-28T22:49:10.138Z,99186.66
2023-02-28T22:52:16.955Z,99191.88
2023-02-28T22:55:22.968Z,99189.47
2023-02-28T22:58:30.945Z,99182.78
2023-02-28T23:01:40.853Z,99180.19
2023-02-28T23:04:47.771Z,99189.28
2023-02-28T23:07:53.801Z,99185.81
2023-02-28T23:11:01.030Z,99182.63
2023-02-28T23:14:08.785Z,99189.72
2023-02-28T23:17:18.177Z,99181.13
2023-02-28T23:20:24.947Z,99181.31
2023-02-28T23:23:32.073Z,99181.47
2023-02-28T23:26:38.195Z,99178.84
2023-02-28T23:29:45.235Z,99185.06
2023-02-28T23:32:54.107Z,99185.22
2023-02-28T23:36:04.314Z,99191.19
2023-02-28T23:39:10.303Z,99190.28
2023-02-28T23:42:17.110Z,99180.78
2023-02-28T23:45:23.307Z,99192.19
2023-02-28T23:48:32.973Z,99199.44
2023-02-28T23:51:39.592Z,99197.75
2023-02-28T23:54:47.068Z,99190.97
2023-02-28T23:57:53.026Z,99185.75
